Time;durP1;ratioP1;P1;durP2;ratioP2;P2;SDS_P1;SDS_P2;PMS_P1;PMS_P2;Temp;Humidity;BMP_temperature;BMP_pressure;BME280_temperature;BME280_humidity;BME280_pressure;Samples;Min_cycle;Max_cycle;Signal;HPM_P1;HPM_P2
2023/01/02 00:02:27;;;;;;;18.35;6.90;;;;;;;7.74;100.00;99108.38;5136598;27;20328;-64
2023/01/02 00:04:54;;;;;;;13.88;5.10;;;;;;;7.72;100.00;99138.72;5136743;28;20063;-64
2023/01/02 00:07:20;;;;;;;10.20;2.35;;;;;;;7.84;100.00;99162.47;5136987;28;20043;-65
2023/01/02 00:09:46;;;;;;;7.28;2.58;;;;;;;7.88;100.00;99122.41;5136510;28;20047;-62
2023/01/02 00:12:12;;;;;;;3.42;1.90;;;;;;;7.95;100.00;99108.94;5137642;27;20047;-64
2023/01/02 00:14:38;;;;;;;9.05;1.70;;;;;;;7.84;100.00;99157.00;5139961;28;20055;-62
2023/01/02 00:17:05;;;;;;;10.38;2.10;;;;;;;7.62;100.00;99109.19;5139953;28;20079;-65
2023/01/02 00:19:32;;;;;;;7.43;1.98;;;;;;;7.84;100.00;99167.91;5140338;28;20057;-62
2023/01/02 00:21:58;;;;;;;6.07;1.88;;;;;;;7.76;100.00;99126.00;5139857;28;20047;-64
2023/01/02 00:24:24;;;;;;;12.10;2.75;;;;;;;7.94;100.00;99104.66;5140024;28;20391;-63
2023/01/02 00:26:50;;;;;;;9.63;1.80;;;;;;;7.91;100.00;99149.00;5139839;28;20047;-63
2023/01/02 00:29:16;;;;;;;3.67;1.58;;;;;;;7.86;100.00;99148.47;5140017;27;20049;-63
2023/01/02 00:31:43;;;;;;;2.92;1.33;;;;;;;7.91;100.00;99118.97;5139675;28;20061;-63
2023/01/02 00:34:09;;;;;;;7.07;1.83;;;;;;;7.91;100.00;99118.97;5140162;28;20043;-63
2023/01/02 00:36:36;;;;;;;4.88;1.60;;;;;;;7.84;100.00;99109.81;5139659;28;20043;-64
2023/01/02 00:39:02;;;;;;;7.18;2.20;;;;;;;7.32;100.00;99106.78;5140160;28;20068;-64
2023/01/02 00:41:31;;;;;;;4.63;2.00;;;;;;;7.76;100.00;99136.09;5139561;28;20142;-63
2023/01/02 00:43:59;;;;;;;11.35;4.15;;;;;;;7.70;100.00;99134.78;5140018;27;20089;-63
2023/01/02 00:46:26;;;;;;;17.20;3.03;;;;;;;7.87;100.00;99128.22;5139521;28;20050;-63
2023/01/02 00:48:52;;;;;;;9.57;3.08;;;;;;;7.80;100.00;99104.25;5139618;28;20055;-64
2023/01/02 00:51:18;;;;;;;7.75;2.58;;;;;;;7.34;100.00;99127.47;5139571;27;20141;-64
2023/01/02 00:53:45;;;;;;;10.40;3.85;;;;;;;7.50;100.00;99204.72;5139402;28;20115;-63
2023/01/02 00:56:11;;;;;;;11.38;3.92;;;;;;;7.20;100.00;99201.47;5139773;28;20042;-62
2023/01/02 00:58:37;;;;;;;9.10;2.22;;;;;;;7.21;100.00;99302.00;5139503;28;20115;-65
2023/01/02 01:01:04;;;;;;;5.18;1.80;;;;;;;7.37;100.00;99332.13;5138970;28;20329;-62
2023/01/02 01:03:30;;;;;;;9.38;2.42;;;;;;;7.11;100.00;99326.19;5139212;28;20057;-62
2023/01/02 01:05:56;;;;;;;4.30;1.90;;;;;;;7.22;100.00;99343.69;5139559;27;20054;-64
2023/01/02 01:08:23;;;;;;;7.40;1.80;;;;;;;7.06;100.00;99317.09;5139284;28;20051;-63
2023/01/02 01:10:50;;;;;;;7.40;2.15;;;;;;;7.28;100.00;99304.94;5139648;27;20051;-62
2023/01/02 01:13:17;;;;;;;3.25;1.60;;;;;;;7.03;100.00;99279.59;5139122;28;20047;-63
2023/01/02 01:15:43;;;;;;;6.95;1.45;;;;;;;7.11;100.00;99318.78;5139053;28;20138;-64
2023/01/02 01:18:09;;;;;;;8.07;1.92;;;;;;;6.95;100.00;99337.72;5139268;28;20134;-63
2023/01/02 01:20:37;;;;;;;8.32;1.80;;;;;;;7.20;100.00;99354.94;5138986;28;20057;-63
2023/01/02 01:23:03;;;;;;;5.82;1.75;;;;;;;7.17;100.00;99312.00;5138670;27;20428;-64
2023/01/02 01:25:29;;;;;;;11.20;2.17;;;;;;;7.14;100.00;99292.78;5137970;28;20054;-63
2023/01/02 01:27:56;;;;;;;12.85;2.63;;;;;;;7.26;100.00;99265.50;5139302;28;20051;-64
2023/01/02 01:30:22;;;;;;;12.00;4.18;;;;;;;7.24;100.00;99213.28;5138982;28;20051;-63
2023/01/02 01:32:48;;;;;;;9.40;3.03;;;;;;;7.23;100.00;99185.22;5139040;28;20396;-63
2023/01/02 01:35:15;;;;;;;8.77;3.05;;;;;;;6.93;100.00;99235.59;5138902;28;20054;-65
2023/01/02 01:37:41;;;;;;;11.05;3.20;;;;;;;6.99;100.00;99275.13;5139211;28;20047;-63
2023/01/02 01:40:08;;;;;;;12.82;3.10;;;;;;;6.86;100.00;99285.22;5138702;28;20415;-64
2023/01/02 01:42:35;;;;;;;5.35;2.00;;;;;;;7.00;100.00;99312.19;5139008;28;20055;-63
2023/01/02 01:45:02;;;;;;;6.22;1.80;;;;;;;6.77;100.00;99326.19;5138669;28;20063;-62
2023/01/02 01:47:40;;;;;;;9.80;2.28;;;;;;;6.67;100.00;99348.41;5138704;28;20050;-65
2023/01/02 01:50:09;;;;;;;6.60;1.98;;;;;;;6.58;100.00;99361.31;5138790;28;20126;-64
2023/01/02 01:52:39;;;;;;;10.65;1.88;;;;;;;6.89;100.00;99398.22;5138511;28;20054;-64
2023/01/02 01:55:09;;;;;;;5.43;1.67;;;;;;;6.85;100.00;99403.53;5138838;28;20345;-65
2023/01/02 01:57:38;;;;;;;4.85;1.40;;;;;;;6.97;100.00;99370.09;5138530;28;20384;-62
2023/01/02 02:00:07;;;;;;;4.28;1.27;;;;;;;7.00;100.00;99344.91;5138782;28;20047;-64
2023/01/02 02:02:34;;;;;;;12.32;1.90;;;;;;;6.82;100.00;99353.22;5138256;28;20047;-63
2023/01/02 02:05:02;;;;;;;4.45;1.55;;;;;;;7.03;100.00;99366.81;5138701;27;20046;-63
2023/01/02 02:07:30;;;;;;;5.13;1.77;;;;;;;7.06;100.00;99378.97;5138558;28;20145;-64
2023/01/02 02:10:02;;;;;;;9.90;2.00;;;;;;;6.93;100.00;99367.25;5138417;28;20051;-62
2023/01/02 02:12:29;;;;;;;9.93;1.80;;;;;;;7.06;100.00;99352.53;5138481;28;20054;-62
2023/01/02 02:14:55;;;;;;;5.50;1.63;;;;;;;7.10;100.00;99333.56;5138104;28;20138;-63
2023/01/02 02:17:33;;;;;;;9.43;1.52;;;;;;;7.09;100.00;99307.41;5138512;28;20050;-62
2023/01/02 02:20:26;;;;;;;7.93;1.98;;;;;;;7.14;100.00;99300.97;5138183;28;20107;-63
2023/01/02 02:23:09;;;;;;;8.10;1.85;;;;;;;7.11;100.00;99298.91;5138413;27;20457;-63
2023/01/02 02:26:17;;;;;;;9.82;2.28;;;;;;;7.22;100.00;99321.88;5137870;27;20047;-62
2023/01/02 02:29:07;;;;;;;6.75;1.77;;;;;;;7.32;100.00;99289.50;5138030;28;20050;-64
2023/01/02 02:31:45;;;;;;;7.65;1.48;;;;;;;7.35;100.00;99251.78;5138235;28;20051;-64
2023/01/02 02:34:19;;;;;;;4.18;1.80;;;;;;;7.15;100.00;99270.63;5137807;28;20483;-63
2023/01/02 02:36:55;;;;;;;7.88;1.52;;;;;;;7.25;100.00;99322.00;5137558;27;20115;-63
2023/01/02 02:39:32;;;;;;;5.25;1.75;;;;;;;7.14;100.00;99284.59;5137891;28;20076;-63
2023/01/02 02:42:06;;;;;;;4.13;1.27;;;;;;;6.99;100.00;99267.75;5137630;28;20058;-64
2023/01/02 02:44:43;;;;;;;5.93;1.63;;;;;;;7.21;100.00;99323.81;5137841;28;20179;-63
2023/01/02 02:47:14;;;;;;;4.03;1.70;;;;;;;7.25;100.00;99305.63;5137615;28;20061;-63
2023/01/02 02:49:49;;;;;;;10.38;2.38;;;;;;;7.01;100.00;99298.22;5138013;28;20054;-65
2023/01/02 02:52:22;;;;;;;9.25;1.77;;;;;;;7.05;100.00;99367.28;5137517;28;20070;-65
2023/01/02 02:54:53;;;;;;;6.65;2.22;;;;;;;7.03;100.00;99375.00;5137505;28;20051;-65
2023/01/02 02:57:21;;;;;;;4.68;1.80;;;;;;;6.94;100.00;99354.41;5137773;28;20145;-62
2023/01/02 02:59:47;;;;;;;7.30;2.47;;;;;;;7.12;100.00;99395.91;5137534;28;20074;-65
2023/01/02 03:02:15;;;;;;;18.02;5.10;;;;;;;7.08;100.00;99406.69;5137449;28;20065;-62
2023/01/02 03:04:45;;;;;;;9.32;2.13;;;;;;;6.76;100.00;99492.72;5137379;28;20051;-62
2023/01/02 03:07:19;;;;;;;13.98;3.17;;;;;;;6.77;100.00;99491.63;5137662;27;20051;-62
2023/01/02 03:09:53;;;;;;;6.57;2.38;;;;;;;7.03;100.00;99507.75;5137368;28;20408;-62
2023/01/02 03:12:29;;;;;;;6.93;2.40;;;;;;;6.99;100.00;99480.38;5137793;27;20055;-63
2023/01/02 03:15:03;;;;;;;5.20;2.47;;;;;;;6.88;100.00;99524.72;5137513;28;20047;-64
2023/01/02 03:17:37;;;;;;;11.73;2.67;;;;;;;6.94;100.00;99507.84;5137200;28;20051;-62
2023/01/02 03:20:07;;;;;;;11.65;2.38;;;;;;;6.87;100.00;99495.88;5137609;28;20146;-63
2023/01/02 03:22:39;;;;;;;12.50;1.95;;;;;;;6.97;100.00;99503.66;5137321;28;20051;-62
2023/01/02 03:25:08;;;;;;;6.72;1.63;;;;;;;6.40;100.00;99499.53;5137542;28;20134;-62
2023/01/02 03:27:40;;;;;;;5.35;1.73;;;;;;;6.85;100.00;99561.59;5137185;28;20055;-63
2023/01/02 03:30:10;;;;;;;7.88;2.03;;;;;;;6.79;100.00;99569.16;5137521;28;20058;-62
2023/01/02 03:32:42;;;;;;;6.30;1.92;;;;;;;6.68;100.00;99608.81;5136972;28;20055;-64
2023/01/02 03:35:13;;;;;;;9.32;2.22;;;;;;;6.77;100.00;99612.31;5137354;28;20323;-63
2023/01/02 03:37:45;;;;;;;9.60;1.85;;;;;;;6.69;100.00;99624.03;5137300;28;20215;-65
2023/01/02 03:40:17;;;;;;;8.85;1.48;;;;;;;6.57;100.00;99615.78;5137181;28;20051;-63
2023/01/02 03:42:49;;;;;;;6.38;2.63;;;;;;;6.55;100.00;99631.63;5137182;28;20061;-65
2023/01/02 03:45:20;;;;;;;7.90;2.80;;;;;;;6.50;100.00;99675.41;5136924;28;20057;-64
2023/01/02 03:47:54;;;;;;;10.68;2.60;;;;;;;6.23;100.00;99679.28;5138705;27;20072;-63
2023/01/02 03:50:22;;;;;;;;;;;;;;;6.23;100.00;99698.34;5140955;28;20428;-64
2023/01/02 03:52:49;;;;;;;7.05;1.60;;;;;;;6.44;100.00;99742.06;5140948;28;19927;-63
2023/01/02 03:55:16;;;;;;;10.27;2.65;;;;;;;6.10;100.00;99736.34;5140282;28;20077;-64
2023/01/02 03:57:50;;;;;;;4.18;1.88;;;;;;;5.90;100.00;99777.75;5140344;28;20061;-62
2023/01/02 04:00:19;;;;;;;17.25;2.05;;;;;;;6.15;100.00;99816.22;5140600;28;20051;-62
2023/01/02 04:02:54;;;;;;;10.80;1.98;;;;;;;6.12;100.00;99826.63;5140097;28;20051;-65
2023/01/02 04:05:26;;;;;;;14.63;2.35;;;;;;;6.31;100.00;99830.97;5140434;28;20057;-63
2023/01/02 04:07:59;;;;;;;6.75;1.77;;;;;;;6.35;100.00;99826.50;5140341;28;20078;-65
2023/01/02 04:10:27;;;;;;;9.88;1.98;;;;;;;6.39;100.00;99816.56;5140549;28;20066;-63
2023/01/02 04:12:59;;;;;;;9.05;1.92;;;;;;;6.32;100.00;99811.59;5140095;28;20436;-62
2023/01/02 04:15:28;;;;;;;9.35;2.10;;;;;;;6.26;100.00;99831.13;5140441;28;20099;-63
2023/01/02 04:18:00;;;;;;;8.10;1.98;;;;;;;6.25;100.00;99824.88;5139882;28;20112;-62
2023/01/02 04:20:30;;;;;;;8.32;1.75;;;;;;;5.82;100.00;99847.34;5139971;28;20062;-64
2023/01/02 04:23:01;;;;;;;6.07;1.58;;;;;;;6.04;100.00;99860.09;5140149;28;20312;-65
2023/01/02 04:25:36;;;;;;;2.70;1.40;;;;;;;6.17;100.00;99873.91;5139916;28;20047;-64
2023/01/02 04:28:06;;;;;;;4.15;1.80;;;;;;;6.08;100.00;99871.94;5140262;28;20043;-65
2023/01/02 04:30:38;;;;;;;13.27;5.00;;;;;;;5.69;100.00;99863.81;5139763;28;20051;-63
2023/01/02 04:33:09;;;;;;;17.42;6.10;;;;;;;5.87;100.00;99906.28;5140141;28;20357;-64
2023/01/02 04:35:35;;;;;;;16.15;5.18;;;;;;;5.75;100.00;99909.59;5139763;28;20484;-64
2023/01/02 04:38:09;;;;;;;10.43;2.85;;;;;;;6.02;100.00;99922.22;5140152;28;20066;-62
2023/01/02 04:40:36;;;;;;;30.43;11.30;;;;;;;6.00;100.00;99921.75;5139962;27;20047;-63
2023/01/02 04:43:06;;;;;;;15.27;5.68;;;;;;;6.18;100.00;99922.56;5139824;28;20097;-65
2023/01/02 04:45:32;;;;;;;7.38;3.00;;;;;;;6.23;100.00;99914.28;5139689;28;20091;-62
2023/01/02 04:47:59;;;;;;;9.52;2.83;;;;;;;6.27;100.00;99911.72;5139721;28;20420;-64
2023/01/02 04:50:27;;;;;;;10.85;2.65;;;;;;;6.32;100.00;99904.16;5139505;28;20054;-63
2023/01/02 04:52:53;;;;;;;10.32;2.50;;;;;;;6.19;100.00;99896.94;5139391;28;20062;-64
2023/01/02 04:55:20;;;;;;;6.00;1.75;;;;;;;5.97;100.00;99892.44;5139921;28;20069;-63
2023/01/02 04:57:46;;;;;;;4.38;1.63;;;;;;;6.12;100.00;99913.75;5139141;27;20051;-65
2023/01/02 05:00:13;;;;;;;10.70;1.60;;;;;;;6.29;100.00;99915.69;5139879;28;20057;-62
2023/01/02 05:02:39;;;;;;;9.50;2.35;;;;;;;6.43;100.00;99907.41;5139244;28;20047;-63
2023/01/02 05:05:07;;;;;;;6.35;1.85;;;;;;;6.13;100.00;99890.88;5139677;27;20114;-62
2023/01/02 05:07:34;;;;;;;7.30;2.45;;;;;;;6.28;100.00;99900.50;5139238;28;20063;-63
2023/01/02 05:10:01;;;;;;;15.25;2.28;;;;;;;6.55;100.00;99885.78;5139422;28;20085;-64
2023/01/02 05:12:27;;;;;;;11.30;2.45;;;;;;;6.57;100.00;99880.81;5139441;28;20054;-62
2023/01/02 05:14:53;;;;;;;11.30;2.00;;;;;;;6.31;100.00;99872.63;5139077;28;20047;-64
2023/01/02 05:17:19;;;;;;;7.32;2.25;;;;;;;6.58;100.00;99873.44;5139286;27;20047;-63
2023/01/02 05:19:46;;;;;;;8.25;2.08;;;;;;;6.56;100.00;99851.16;5139102;28;20138;-63
2023/01/02 05:24:57;;;;;;;52.95;18.05;;;;;;;6.51;100.00;99849.41;5139324;28;20454;-64
2023/01/02 05:27:23;;;;;;;24.15;8.05;;;;;;;6.23;100.00;99846.19;5139468;28;20051;-62
2023/01/02 05:29:49;;;;;;;18.15;6.00;;;;;;;6.53;100.00;99885.31;5138975;28;20051;-64
2023/01/02 05:32:15;;;;;;;16.98;5.38;;;;;;;6.71;100.00;99866.22;5138988;28;20376;-62
2023/01/02 05:34:42;;;;;;;12.05;4.15;;;;;;;6.43;100.00;99868.47;5138884;28;20051;-65
2023/01/02 05:37:10;;;;;;;28.85;7.10;;;;;;;6.68;100.00;99870.38;5138690;28;20145;-65
2023/01/02 05:39:36;;;;;;;13.73;3.92;;;;;;;6.40;100.00;99853.56;5138861;28;20043;-62
2023/01/02 05:42:03;;;;;;;13.30;4.38;;;;;;;6.69;100.00;99868.47;5138854;28;20434;-64
2023/01/02 05:44:30;;;;;;;11.52;3.38;;;;;;;6.47;100.00;99855.81;5139011;28;20043;-63
2023/01/02 05:46:56;;;;;;;11.38;1.85;;;;;;;6.03;100.00;99855.78;5138608;28;20134;-63
2023/01/02 05:49:22;;;;;;;9.00;2.00;;;;;;;6.39;100.00;99881.13;5138919;28;20138;-63
2023/01/02 05:51:48;;;;;;;5.10;2.22;;;;;;;6.23;100.00;99891.66;5138517;28;20067;-62
2023/01/02 05:54:15;;;;;;;13.45;2.33;;;;;;;6.56;100.00;99901.00;5138902;28;20047;-65
2023/01/02 05:56:41;;;;;;;7.68;2.25;;;;;;;6.36;100.00;99894.28;5138514;28;20137;-63
2023/01/02 05:59:08;;;;;;;14.20;4.18;;;;;;;6.58;100.00;99903.41;5138330;28;20051;-64
2023/01/02 06:01:34;;;;;;;8.65;2.17;;;;;;;6.25;100.00;99908.50;5138156;27;20145;-63
2023/01/02 06:04:01;;;;;;;8.15;2.30;;;;;;;6.40;100.00;99886.25;5138288;28;20484;-63
2023/01/02 06:06:31;;;;;;;3.53;1.60;;;;;;;6.05;100.00;99907.16;5138404;28;20047;-63
2023/01/02 06:08:58;;;;;;;10.82;2.25;;;;;;;6.31;100.00;99902.59;5138267;28;20065;-63
2023/01/02 06:11:25;;;;;;;7.55;2.03;;;;;;;6.28;100.00;99884.16;5137796;27;20051;-65
2023/01/02 06:13:52;;;;;;;11.10;3.78;;;;;;;6.20;100.00;99905.91;5138147;28;20058;-63
2023/01/02 06:16:19;;;;;;;14.93;3.08;;;;;;;6.19;100.00;99913.28;5138418;28;20400;-63
2023/01/02 06:18:45;;;;;;;19.40;2.28;;;;;;;5.96;100.00;99933.56;5138066;28;20328;-65
2023/01/02 06:21:14;;;;;;;9.43;2.33;;;;;;;5.85;100.00;99952.84;5138565;28;20380;-63
2023/01/02 06:23:41;;;;;;;10.90;2.40;;;;;;;5.85;100.00;99969.19;5138004;28;20051;-62
2023/01/02 06:26:09;;;;;;;3.58;2.20;;;;;;;5.95;100.00;99980.94;5138432;28;20476;-63
2023/01/02 06:28:35;;;;;;;9.63;2.28;;;;;;;5.62;100.00;99986.66;5137977;28;20397;-63
2023/01/02 06:31:02;;;;;;;12.00;2.33;;;;;;;5.75;100.00;99996.66;5137926;28;20051;-62
2023/01/02 06:33:30;;;;;;;9.82;1.88;;;;;;;5.52;100.00;100006.78;5137848;28;20053;-64
2023/01/02 06:35:58;;;;;;;12.63;2.47;;;;;;;5.33;100.00;100006.16;5137808;28;20058;-62
2023/01/02 06:38:24;;;;;;;11.40;1.80;;;;;;;5.27;100.00;100013.66;5138035;28;20421;-63
2023/01/02 06:40:53;;;;;;;4.68;1.80;;;;;;;5.19;100.00;100017.88;5137922;28;20051;-64
2023/01/02 06:43:20;;;;;;;7.07;1.67;;;;;;;5.27;100.00;100010.13;5138055;27;20142;-64
2023/01/02 06:45:46;;;;;;;8.50;1.83;;;;;;;5.40;100.00;100001.13;5137654;28;20068;-62
2023/01/02 06:48:12;;;;;;;10.85;1.65;;;;;;;5.45;100.00;100020.00;5138124;28;20290;-64
2023/01/02 06:50:39;;;;;;;9.13;1.92;;;;;;;5.71;100.00;100014.72;5137628;28;20046;-62
2023/01/02 06:53:05;;;;;;;8.45;2.22;;;;;;;5.88;100.00;100019.47;5138019;27;20418;-64
2023/01/02 06:55:32;;;;;;;14.77;3.75;;;;;;;6.02;100.00;100024.84;5137813;28;20137;-62
2023/01/02 06:57:58;;;;;;;9.60;1.58;;;;;;;5.69;100.00;100036.00;5137746;28;20077;-64
2023/01/02 07:00:24;;;;;;;12.63;2.10;;;;;;;6.03;100.00;100032.72;5137783;28;20051;-62
2023/01/02 07:02:51;;;;;;;8.85;1.83;;;;;;;6.27;100.00;100023.34;5137306;28;20051;-64
2023/01/02 07:05:17;;;;;;;10.35;2.10;;;;;;;6.08;100.00;100024.38;5137619;28;20057;-62
2023/01/02 07:07:44;;;;;;;8.95;2.20;;;;;;;6.49;100.00;100017.78;5137278;28;20452;-63
2023/01/02 07:10:10;;;;;;;14.68;2.80;;;;;;;6.21;100.00;100019.97;5137612;28;20047;-62
2023/01/02 07:12:37;;;;;;;9.35;2.10;;;;;;;6.42;100.00;100027.56;5137319;28;20047;-65
2023/01/02 07:15:05;;;;;;;6.38;2.10;;;;;;;6.68;100.00;100014.81;5137219;27;20054;-64
2023/01/02 07:17:32;;;;;;;5.80;2.00;;;;;;;6.63;100.00;100011.41;5137314;28;20059;-64
2023/01/02 07:19:58;;;;;;;9.85;1.88;;;;;;;6.78;100.00;99986.44;5137627;28;20043;-63
2023/01/02 07:22:25;;;;;;;6.72;1.75;;;;;;;6.66;100.00;99978.88;5139700;27;20062;-64
2023/01/02 07:24:52;;;;;;;11.88;2.10;;;;;;;6.77;100.00;99977.47;5140877;28;20051;-65
2023/01/02 07:27:18;;;;;;;14.00;1.92;;;;;;;6.82;100.00;99954.69;5141174;28;20320;-64
2023/01/02 07:29:44;;;;;;;12.95;2.15;;;;;;;6.80;100.00;99938.69;5140810;28;20488;-64
2023/01/02 07:32:10;;;;;;;13.63;2.50;;;;;;;6.94;100.00;99911.25;5141097;28;20047;-65
2023/01/02 07:34:36;;;;;;;9.18;2.20;;;;;;;7.00;100.00;99882.72;5140919;28;20065;-63
2023/01/02 07:37:03;;;;;;;7.88;2.30;;;;;;;7.06;100.00;99858.78;5140960;28;20404;-64
2023/01/02 07:39:29;;;;;;;7.93;2.25;;;;;;;7.18;100.00;99836.31;5140628;28;20426;-62
2023/01/02 07:41:56;;;;;;;8.02;2.08;;;;;;;7.26;100.00;99821.84;5140985;28;20051;-65
2023/01/02 07:44:22;;;;;;;12.27;2.15;;;;;;;7.31;100.00;99794.41;5140608;28;20058;-62
2023/01/02 07:46:48;;;;;;;15.73;3.30;;;;;;;7.23;100.00;99784.31;5140947;28;20082;-65
2023/01/02 07:49:15;;;;;;;16.08;3.40;;;;;;;7.30;100.00;99774.50;5140465;28;20055;-63
2023/01/02 07:51:41;;;;;;;13.40;2.72;;;;;;;7.14;100.00;99789.00;5140386;28;20142;-64
2023/01/02 07:54:07;;;;;;;11.25;2.88;;;;;;;7.41;100.00;99799.47;5140700;28;20344;-63
2023/01/02 07:56:33;;;;;;;12.27;3.70;;;;;;;7.43;100.00;99772.69;5140516;28;20115;-64
2023/01/02 07:59:00;;;;;;;17.52;3.95;;;;;;;7.37;100.00;99756.84;5140698;28;20124;-62
2023/01/02 08:01:26;;;;;;;12.27;3.88;;;;;;;7.04;100.00;99755.53;5140267;28;20047;-64
2023/01/02 08:03:53;;;;;;;10.98;3.33;;;;;;;7.44;100.00;99768.81;5140507;27;20047;-63
2023/01/02 08:06:19;;;;;;;8.63;2.88;;;;;;;7.36;100.00;99720.53;5140351;28;20046;-64
2023/01/02 08:08:46;;;;;;;17.98;3.38;;;;;;;7.42;100.00;99708.31;5140641;28;20111;-63
2023/01/02 08:11:14;;;;;;;11.20;3.30;;;;;;;7.06;100.00;99750.56;5140236;28;20336;-65
2023/01/02 08:13:40;;;;;;;14.07;3.15;;;;;;;7.59;100.00;99758.47;5140480;27;20149;-64
2023/01/02 08:16:10;;;;;;;12.80;3.25;;;;;;;7.79;100.00;99698.44;5140065;28;20054;-64
2023/01/02 08:18:36;;;;;;;8.45;2.60;;;;;;;7.90;100.00;99619.69;5140217;28;20305;-62
2023/01/02 08:21:03;;;;;;;10.82;3.08;;;;;;;7.99;100.00;99546.66;5139934;27;20058;-65
2023/01/02 08:23:29;;;;;;;10.48;2.70;;;;;;;8.12;100.00;99542.03;5140133;28;20058;-65
2023/01/02 08:25:57;;;;;;;14.18;3.10;;;;;;;8.19;100.00;99500.50;5140298;28;20320;-65
2023/01/02 08:28:24;;;;;;;14.40;3.00;;;;;;;8.17;100.00;99448.97;5140105;28;20062;-64
2023/01/02 08:30:50;;;;;;;10.18;3.25;;;;;;;8.18;100.00;99427.91;5140030;28;20418;-64
2023/01/02 08:33:17;;;;;;;12.02;3.25;;;;;;;8.30;100.00;99384.19;5139074;27;20070;-64
2023/01/02 08:35:43;;;;;;;6.78;2.80;;;;;;;8.25;100.00;99335.25;5140205;28;20192;-62
2023/01/02 08:38:10;;;;;;;14.43;3.03;;;;;;;8.32;100.00;99354.59;5139689;28;20420;-64
2023/01/02 08:40:36;;;;;;;12.95;2.88;;;;;;;8.32;100.00;99346.38;5140158;28;20289;-65
2023/01/02 08:43:02;;;;;;;11.40;3.38;;;;;;;8.28;100.00;99344.72;5139557;28;20047;-63
2023/01/02 08:45:29;;;;;;;10.15;2.88;;;;;;;8.08;100.00;99346.44;5140049;28;20043;-64
2023/01/02 08:47:55;;;;;;;12.27;3.25;;;;;;;8.16;100.00;99389.22;5139534;28;20138;-64
2023/01/02 08:50:22;;;;;;;21.48;3.65;;;;;;;8.24;100.00;99364.50;5139555;28;20057;-62
2023/01/02 08:52:48;;;;;;;15.82;3.03;;;;;;;8.23;100.00;99376.59;5139765;28;20421;-64
2023/01/02 08:55:15;;;;;;;11.68;4.25;;;;;;;8.23;100.00;99359.38;5139481;28;20557;-62
2023/01/02 08:57:41;;;;;;;11.75;3.25;;;;;;;8.28;100.00;99350.16;5139550;28;20054;-65
2023/01/02 09:00:08;;;;;;;23.10;3.47;;;;;;;8.23;100.00;99352.00;5139299;28;20047;-62
2023/01/02 09:02:35;;;;;;;7.88;2.65;;;;;;;7.95;100.00;99332.81;5139582;28;20062;-63
2023/01/02 09:05:01;;;;;;;15.43;3.20;;;;;;;8.25;100.00;99419.94;5139357;28;20051;-63
2023/01/02 09:07:31;;;;;;;12.15;3.85;;;;;;;8.35;100.00;99383.94;5139875;28;20127;-63
2023/01/02 09:09:57;;;;;;;14.43;3.35;;;;;;;8.36;100.00;99360.16;5139170;28;20441;-63
2023/01/02 09:12:23;;;;;;;6.30;2.60;;;;;;;8.22;100.00;99360.53;5139753;28;20077;-62
2023/01/02 09:14:50;;;;;;;11.82;3.45;;;;;;;8.29;100.00;99403.66;5139043;27;20438;-64
2023/01/02 09:17:16;;;;;;;10.40;3.33;;;;;;;8.29;100.00;99400.91;5139345;28;20129;-63
2023/01/02 09:19:43;;;;;;;13.68;3.47;;;;;;;8.34;100.00;99403.44;5139498;28;20057;-65
2023/01/02 09:22:10;;;;;;;12.25;3.40;;;;;;;8.30;100.00;99391.56;5138959;28;20094;-65
2023/01/02 09:24:37;;;;;;;14.05;3.30;;;;;;;8.35;100.00;99388.63;5139138;28;20053;-62
2023/01/02 09:27:03;;;;;;;13.10;3.20;;;;;;;8.32;100.00;99409.22;5138946;28;20167;-65
2023/01/02 09:29:29;;;;;;;10.82;3.10;;;;;;;8.29;100.00;99409.91;5139125;28;20043;-63
2023/01/02 09:31:55;;;;;;;17.95;3.28;;;;;;;8.33;100.00;99410.84;5138789;28;20438;-65
2023/01/02 09:34:21;;;;;;;12.80;4.13;;;;;;;8.34;100.00;99428.00;5139029;28;20047;-63
2023/01/02 09:36:48;;;;;;;15.52;3.15;;;;;;;8.24;100.00;99441.00;5138786;28;20051;-64
2023/01/02 09:39:14;;;;;;;8.77;3.55;;;;;;;8.17;100.00;99459.09;5138750;28;20084;-62
2023/01/02 09:41:43;;;;;;;19.08;5.88;;;;;;;8.33;100.00;99432.69;5138728;28;20051;-64
2023/01/02 09:44:15;;;;;;;17.85;4.80;;;;;;;8.27;100.00;99379.41;5138737;27;20328;-64
2023/01/02 09:46:48;;;;;;;13.38;4.80;;;;;;;8.35;100.00;99359.38;5138288;28;20105;-63
2023/01/02 09:49:17;;;;;;;17.85;4.70;;;;;;;8.32;100.00;99392.81;5138531;28;20059;-62
2023/01/02 09:51:44;;;;;;;11.45;4.97;;;;;;;8.35;100.00;99391.34;5138844;28;20047;-63
2023/01/02 09:54:17;;;;;;;17.83;5.68;;;;;;;8.39;100.00;99379.41;5138474;28;20043;-62
2023/01/02 09:56:49;;;;;;;16.63;6.03;;;;;;;7.91;100.00;99399.34;5138829;28;20063;-62
2023/01/02 09:59:20;;;;;;;17.33;6.65;;;;;;;8.20;100.00;99478.31;5138444;28;20198;-63
2023/01/02 10:01:56;;;;;;;22.35;7.05;;;;;;;8.41;100.00;99455.56;5138658;28;20445;-62
2023/01/02 10:04:39;;;;;;;22.08;8.07;;;;;;;8.33;100.00;99432.69;5138329;27;20488;-64
2023/01/02 10:07:11;;;;;;;19.88;7.80;;;;;;;8.24;100.00;99445.66;5138528;28;20055;-65
2023/01/02 10:09:48;;;;;;;23.27;7.22;;;;;;;8.15;100.00;99428.59;5138391;28;20047;-65
2023/01/02 10:12:25;;;;;;;27.60;7.88;;;;;;;8.09;100.00;99432.69;5138190;28;20047;-64
2023/01/02 10:14:55;;;;;;;29.48;7.95;;;;;;;8.29;100.00;99431.75;5138500;27;20055;-64
2023/01/02 10:17:24;;;;;;;21.08;7.15;;;;;;;8.27;100.00;99406.72;5138112;28;20043;-64
2023/01/02 10:19:55;;;;;;;26.15;7.30;;;;;;;8.21;100.00;99408.09;5138333;27;20058;-64
2023/01/02 10:22:36;;;;;;;21.15;7.43;;;;;;;8.24;100.00;99401.97;5137938;28;20051;-65
2023/01/02 10:25:06;;;;;;;20.40;8.45;;;;;;;8.20;100.00;99412.78;5138246;28;20051;-62
2023/01/02 10:27:38;;;;;;;19.67;6.93;;;;;;;8.19;100.00;99434.94;5138364;28;20058;-64
2023/01/02 10:30:17;;;;;;;19.35;6.68;;;;;;;8.16;100.00;99436.44;5138010;28;20065;-62
2023/01/02 10:32:47;;;;;;;14.70;6.68;;;;;;;8.18;100.00;99406.84;5138237;28;20301;-64
2023/01/02 10:35:26;;;;;;;16.13;7.10;;;;;;;8.23;100.00;99386.69;5137890;28;20435;-63
2023/01/02 10:37:53;;;;;;;16.80;6.57;;;;;;;8.17;100.00;99330.75;5138285;28;20051;-63
2023/01/02 10:40:20;;;;;;;28.88;7.75;;;;;;;8.19;100.00;99310.13;5137791;28;20051;-64
2023/01/02 10:42:51;;;;;;;22.75;10.73;;;;;;;7.94;100.00;99314.06;5137607;28;20043;-63
2023/01/02 10:45:17;;;;;;;26.17;10.40;;;;;;;8.10;100.00;99320.41;5137985;28;20312;-63
2023/01/02 10:47:45;;;;;;;34.53;12.93;;;;;;;7.56;100.00;99397.03;5137714;28;20066;-65
2023/01/02 10:50:16;;;;;;;24.75;8.05;;;;;;;7.78;100.00;99462.13;5137762;28;20047;-65
2023/01/02 10:52:48;;;;;;;28.73;10.07;;;;;;;8.05;100.00;99470.78;5137755;28;20130;-65
2023/01/02 10:55:29;;;;;;;27.65;11.50;;;;;;;8.04;100.00;99417.31;5137937;27;20112;-64
2023/01/02 10:58:02;;;;;;;25.80;10.98;;;;;;;8.01;100.00;99427.00;5137268;28;20089;-64
2023/01/02 11:00:30;;;;;;;27.77;9.63;;;;;;;7.99;100.00;99429.25;5138030;28;20094;-63
2023/01/02 11:02:58;;;;;;;37.55;13.52;;;;;;;8.05;100.00;99421.66;5137304;28;20143;-64
2023/01/02 11:05:27;;;;;;;29.40;13.23;;;;;;;7.97;100.00;99381.63;5137715;28;20061;-65
2023/01/02 11:07:54;;;;;;;23.63;11.70;;;;;;;8.08;100.00;99415.50;5137423;28;20051;-63
2023/01/02 11:10:25;;;;;;;22.95;9.30;;;;;;;7.88;100.00;99391.84;5137595;28;20051;-65
2023/01/02 11:12:52;;;;;;;21.20;9.98;;;;;;;8.04;100.00;99424.72;5137660;28;20081;-64
2023/01/02 11:15:25;;;;;;;30.38;10.77;;;;;;;8.12;100.00;99404.69;5137419;28;20079;-63
2023/01/02 11:17:52;;;;;;;27.13;10.23;;;;;;;8.08;100.00;99420.97;5137521;28;20482;-65
2023/01/02 11:20:24;;;;;;;34.53;11.52;;;;;;;8.13;100.00;99381.69;5137221;28;20285;-62
2023/01/02 11:22:51;;;;;;;26.50;10.38;;;;;;;8.05;100.00;99361.56;5137620;28;20293;-63
2023/01/02 11:25:22;;;;;;;26.65;11.68;;;;;;;8.02;100.00;99384.09;5137152;28;20401;-65
2023/01/02 11:27:49;;;;;;;23.63;12.35;;;;;;;7.96;100.00;99481.00;5137081;28;20142;-65
2023/01/02 11:30:28;;;;;;;35.55;15.63;;;;;;;8.02;100.00;99526.06;5137340;28;20319;-63
2023/01/02 11:33:04;;;;;;;38.70;14.75;;;;;;;7.94;100.00;99589.78;5137023;28;20090;-63
2023/01/02 11:35:37;;;;;;;30.48;13.23;;;;;;;7.96;100.00;99640.19;5137261;28;20047;-63
2023/01/02 11:38:04;;;;;;;36.25;13.35;;;;;;;7.88;100.00;99668.34;5137088;28;20395;-63